sensor_id;sensor_type;location;lat;lon;timestamp;P1;durP1;ratioP1;P2;durP2;ratioP2
15655;SDS011;7928;43.614;1.456;2023-01-10T00:01:34;14.30;;;3.63;;
15655;SDS011;7928;43.614;1.456;2023-01-10T00:04:01;20.47;;;4.20;;
15655;SDS011;7928;43.614;1.456;2023-01-10T00:06:30;15.07;;;3.10;;
15655;SDS011;7928;43.614;1.456;2023-01-10T00:08:57;13.03;;;2.87;;
15655;SDS011;7928;43.614;1.456;2023-01-10T00:11:24;16.83;;;3.40;;
15655;SDS011;7928;43.614;1.456;2023-01-10T00:14:08;13.43;;;3.00;;
15655;SDS011;7928;43.614;1.456;2023-01-10T00:16:36;16.40;;;3.60;;
15655;SDS011;7928;43.614;1.456;2023-01-10T00:19:04;15.40;;;3.30;;
15655;SDS011;7928;43.614;1.456;2023-01-10T00:21:33;12.93;;;3.17;;
15655;SDS011;7928;43.614;1.456;2023-01-10T00:24:01;15.00;;;4.20;;
15655;SDS011;7928;43.614;1.456;2023-01-10T00:26:41;19.27;;;3.20;;
15655;SDS011;7928;43.614;1.456;2023-01-10T00:29:10;10.43;;;3.03;;
15655;SDS011;7928;43.614;1.456;2023-01-10T00:31:37;16.37;;;3.57;;
15655;SDS011;7928;43.614;1.456;2023-01-10T00:34:04;16.33;;;3.17;;
15655;SDS011;7928;43.614;1.456;2023-01-10T00:36:33;15.17;;;2.90;;
15655;SDS011;7928;43.614;1.456;2023-01-10T00:39:00;15.70;;;3.60;;
15655;SDS011;7928;43.614;1.456;2023-01-10T00:41:32;9.87;;;3.03;;
15655;SDS011;7928;43.614;1.456;2023-01-10T00:44:16;15.53;;;3.33;;
15655;SDS011;7928;43.614;1.456;2023-01-10T00:46:43;14.97;;;3.67;;
15655;SDS011;7928;43.614;1.456;2023-01-10T00:49:10;16.33;;;3.97;;
15655;SDS011;7928;43.614;1.456;2023-01-10T00:51:41;16.67;;;3.40;;
15655;SDS011;7928;43.614;1.456;2023-01-10T00:54:09;15.63;;;4.13;;
15655;SDS011;7928;43.614;1.456;2023-01-10T00:56:36;14.63;;;3.40;;
15655;SDS011;7928;43.614;1.456;2023-01-10T00:59:04;18.50;;;3.80;;
15655;SDS011;7928;43.614;1.456;2023-01-10T01:01:32;15.90;;;3.60;;
15655;SDS011;7928;43.614;1.456;2023-01-10T01:03:59;16.47;;;3.47;;
15655;SDS011;7928;43.614;1.456;2023-01-10T01:06:26;10.87;;;3.10;;
15655;SDS011;7928;43.614;1.456;2023-01-10T01:08:54;16.00;;;3.97;;
15655;SDS011;7928;43.614;1.456;2023-01-10T01:11:21;16.70;;;3.57;;
15655;SDS011;7928;43.614;1.456;2023-01-10T01:13:48;14.67;;;4.20;;
15655;SDS011;7928;43.614;1.456;2023-01-10T01:16:15;15.13;;;4.30;;
15655;SDS011;7928;43.614;1.456;2023-01-10T01:18:43;14.37;;;3.10;;
15655;SDS011;7928;43.614;1.456;2023-01-10T01:21:10;14.63;;;3.50;;
15655;SDS011;7928;43.614;1.456;2023-01-10T01:23:37;16.37;;;3.37;;
15655;SDS011;7928;43.614;1.456;2023-01-10T01:26:06;14.70;;;4.27;;
15655;SDS011;7928;43.614;1.456;2023-01-10T01:28:33;11.93;;;3.70;;
15655;SDS011;7928;43.614;1.456;2023-01-10T01:31:05;14.50;;;3.07;;
15655;SDS011;7928;43.614;1.456;2023-01-10T01:33:32;15.47;;;4.27;;
15655;SDS011;7928;43.614;1.456;2023-01-10T01:36:00;19.40;;;4.23;;
15655;SDS011;7928;43.614;1.456;2023-01-10T01:38:27;14.33;;;4.43;;
15655;SDS011;7928;43.614;1.456;2023-01-10T01:40:54;17.67;;;3.60;;
15655;SDS011;7928;43.614;1.456;2023-01-10T01:43:23;20.00;;;3.97;;
15655;SDS011;7928;43.614;1.456;2023-01-10T01:45:52;19.20;;;3.97;;
15655;SDS011;7928;43.614;1.456;2023-01-10T01:48:22;18.23;;;4.43;;
15655;SDS011;7928;43.614;1.456;2023-01-10T01:50:56;17.13;;;3.90;;
15655;SDS011;7928;43.614;1.456;2023-01-10T01:53:30;16.10;;;3.27;;
15655;SDS011;7928;43.614;1.456;2023-01-10T01:56:02;19.97;;;4.00;;
15655;SDS011;7928;43.614;1.456;2023-01-10T01:58:37;21.87;;;4.00;;
15655;SDS011;7928;43.614;1.456;2023-01-10T02:01:09;24.80;;;4.90;;
15655;SDS011;7928;43.614;1.456;2023-01-10T02:03:38;18.23;;;4.17;;
15655;SDS011;7928;43.614;1.456;2023-01-10T02:06:06;16.97;;;3.40;;
15655;SDS011;7928;43.614;1.456;2023-01-10T02:08:34;18.13;;;4.23;;
15655;SDS011;7928;43.614;1.456;2023-01-10T02:11:04;14.93;;;3.43;;
15655;SDS011;7928;43.614;1.456;2023-01-10T02:13:37;19.73;;;4.07;;
15655;SDS011;7928;43.614;1.456;2023-01-10T02:16:07;20.20;;;3.67;;
15655;SDS011;7928;43.614;1.456;2023-01-10T02:18:34;21.13;;;3.80;;
15655;SDS011;7928;43.614;1.456;2023-01-10T02:21:15;19.30;;;3.40;;
15655;SDS011;7928;43.614;1.456;2023-01-10T02:24:06;12.53;;;3.43;;
15655;SDS011;7928;43.614;1.456;2023-01-10T02:27:05;16.77;;;3.47;;
15655;SDS011;7928;43.614;1.456;2023-01-10T02:33:05;16.63;;;3.93;;
15655;SDS011;7928;43.614;1.456;2023-01-10T02:38:36;13.40;;;3.43;;
15655;SDS011;7928;43.614;1.456;2023-01-10T02:41:15;14.27;;;3.60;;
15655;SDS011;7928;43.614;1.456;2023-01-10T02:43:49;21.83;;;3.93;;
15655;SDS011;7928;43.614;1.456;2023-01-10T02:46:21;16.20;;;3.53;;
15655;SDS011;7928;43.614;1.456;2023-01-10T02:48:53;18.37;;;3.33;;
15655;SDS011;7928;43.614;1.456;2023-01-10T02:51:22;13.63;;;3.20;;
15655;SDS011;7928;43.614;1.456;2023-01-10T02:53:51;18.93;;;4.07;;
15655;SDS011;7928;43.614;1.456;2023-01-10T03:02:31;15.07;;;3.43;;
15655;SDS011;7928;43.614;1.456;2023-01-10T03:05:11;15.30;;;3.77;;
15655;SDS011;7928;43.614;1.456;2023-01-10T03:07:45;19.40;;;3.50;;
15655;SDS011;7928;43.614;1.456;2023-01-10T03:10:21;14.83;;;3.10;;
15655;SDS011;7928;43.614;1.456;2023-01-10T03:12:54;16.30;;;3.60;;
15655;SDS011;7928;43.614;1.456;2023-01-10T03:15:26;27.50;;;3.80;;
15655;SDS011;7928;43.614;1.456;2023-01-10T03:17:57;18.47;;;3.83;;
15655;SDS011;7928;43.614;1.456;2023-01-10T03:20:28;15.40;;;3.27;;
15655;SDS011;7928;43.614;1.456;2023-01-10T03:23:00;18.20;;;3.53;;
15655;SDS011;7928;43.614;1.456;2023-01-10T03:25:31;17.80;;;3.50;;
15655;SDS011;7928;43.614;1.456;2023-01-10T03:28:02;16.00;;;3.37;;
15655;SDS011;7928;43.614;1.456;2023-01-10T03:30:34;16.47;;;3.63;;
15655;SDS011;7928;43.614;1.456;2023-01-10T03:33:06;13.60;;;3.50;;
15655;SDS011;7928;43.614;1.456;2023-01-10T03:35:38;16.80;;;3.70;;
15655;SDS011;7928;43.614;1.456;2023-01-10T03:38:18;12.87;;;2.80;;
15655;SDS011;7928;43.614;1.456;2023-01-10T03:40:52;10.73;;;2.77;;
15655;SDS011;7928;43.614;1.456;2023-01-10T03:43:26;13.57;;;3.40;;
15655;SDS011;7928;43.614;1.456;2023-01-10T03:46:25;19.67;;;4.10;;
15655;SDS011;7928;43.614;1.456;2023-01-10T03:48:57;19.03;;;3.20;;
15655;SDS011;7928;43.614;1.456;2023-01-10T03:51:29;18.63;;;3.00;;
15655;SDS011;7928;43.614;1.456;2023-01-10T03:53:58;24.90;;;3.97;;
15655;SDS011;7928;43.614;1.456;2023-01-10T03:56:26;17.33;;;3.17;;
15655;SDS011;7928;43.614;1.456;2023-01-10T03:58:53;14.37;;;3.23;;
15655;SDS011;7928;43.614;1.456;2023-01-10T04:01:20;17.53;;;4.20;;
15655;SDS011;7928;43.614;1.456;2023-01-10T04:03:47;15.30;;;2.90;;
15655;SDS011;7928;43.614;1.456;2023-01-10T04:06:14;13.40;;;3.03;;
15655;SDS011;7928;43.614;1.456;2023-01-10T04:08:43;13.63;;;3.70;;
15655;SDS011;7928;43.614;1.456;2023-01-10T04:11:10;16.07;;;3.13;;
15655;SDS011;7928;43.614;1.456;2023-01-10T04:13:37;15.43;;;3.10;;
15655;SDS011;7928;43.614;1.456;2023-01-10T04:16:06;21.67;;;3.67;;
15655;SDS011;7928;43.614;1.456;2023-01-10T04:18:33;10.87;;;2.77;;
15655;SDS011;7928;43.614;1.456;2023-01-10T04:21:00;11.57;;;3.73;;
15655;SDS011;7928;43.614;1.456;2023-01-10T04:23:32;12.63;;;2.77;;
15655;SDS011;7928;43.614;1.456;2023-01-10T04:26:00;13.07;;;3.30;;
15655;SDS011;7928;43.614;1.456;2023-01-10T04:28:27;13.80;;;2.63;;
15655;SDS011;7928;43.614;1.456;2023-01-10T04:30:54;14.10;;;3.27;;
15655;SDS011;7928;43.614;1.456;2023-01-10T04:33:21;12.03;;;3.20;;
15655;SDS011;7928;43.614;1.456;2023-01-10T04:35:48;13.57;;;3.00;;
15655;SDS011;7928;43.614;1.456;2023-01-10T04:38:16;15.03;;;3.20;;
15655;SDS011;7928;43.614;1.456;2023-01-10T04:40:44;10.27;;;2.83;;
15655;SDS011;7928;43.614;1.456;2023-01-10T04:43:18;11.67;;;2.57;;
15655;SDS011;7928;43.614;1.456;2023-01-10T04:45:45;15.37;;;3.60;;
15655;SDS011;7928;43.614;1.456;2023-01-10T04:48:12;16.83;;;3.53;;
15655;SDS011;7928;43.614;1.456;2023-01-10T04:50:40;22.60;;;3.27;;
15655;SDS011;7928;43.614;1.456;2023-01-10T04:53:07;14.40;;;2.60;;
15655;SDS011;7928;43.614;1.456;2023-01-10T04:55:34;14.90;;;2.97;;
15655;SDS011;7928;43.614;1.456;2023-01-10T04:58:01;13.53;;;3.17;;
15655;SDS011;7928;43.614;1.456;2023-01-10T05:00:30;12.17;;;2.97;;
15655;SDS011;7928;43.614;1.456;2023-01-10T05:02:57;12.20;;;3.20;;
15655;SDS011;7928;43.614;1.456;2023-01-10T05:05:24;11.37;;;3.43;;
15655;SDS011;7928;43.614;1.456;2023-01-10T05:07:52;13.80;;;3.37;;
15655;SDS011;7928;43.614;1.456;2023-01-10T05:10:28;12.80;;;3.53;;
15655;SDS011;7928;43.614;1.456;2023-01-10T05:12:55;19.20;;;3.40;;
15655;SDS011;7928;43.614;1.456;2023-01-10T05:15:22;15.03;;;3.50;;
15655;SDS011;7928;43.614;1.456;2023-01-10T05:17:55;15.90;;;3.80;;
15655;SDS011;7928;43.614;1.456;2023-01-10T05:20:23;12.60;;;3.13;;
15655;SDS011;7928;43.614;1.456;2023-01-10T05:22:50;11.93;;;3.73;;
15655;SDS011;7928;43.614;1.456;2023-01-10T05:25:17;16.13;;;3.20;;
15655;SDS011;7928;43.614;1.456;2023-01-10T05:27:44;13.27;;;3.60;;
15655;SDS011;7928;43.614;1.456;2023-01-10T05:30:11;17.17;;;3.60;;
15655;SDS011;7928;43.614;1.456;2023-01-10T05:32:39;16.60;;;3.27;;
15655;SDS011;7928;43.614;1.456;2023-01-10T05:35:08;11.03;;;3.07;;
15655;SDS011;7928;43.614;1.456;2023-01-10T05:37:35;16.77;;;3.43;;
15655;SDS011;7928;43.614;1.456;2023-01-10T05:40:02;16.10;;;3.80;;
15655;SDS011;7928;43.614;1.456;2023-01-10T05:42:30;14.37;;;3.43;;
15655;SDS011;7928;43.614;1.456;2023-01-10T05:44:57;9.70;;;3.00;;
15655;SDS011;7928;43.614;1.456;2023-01-10T05:47:24;13.17;;;3.77;;
15655;SDS011;7928;43.614;1.456;2023-01-10T05:49:51;12.37;;;3.50;;
15655;SDS011;7928;43.614;1.456;2023-01-10T05:52:20;13.50;;;3.10;;
15655;SDS011;7928;43.614;1.456;2023-01-10T05:54:47;13.87;;;2.80;;
15655;SDS011;7928;43.614;1.456;2023-01-10T05:57:14;9.87;;;2.00;;
15655;SDS011;7928;43.614;1.456;2023-01-10T05:59:43;9.57;;;2.70;;
15655;SDS011;7928;43.614;1.456;2023-01-10T06:02:10;9.20;;;2.30;;
15655;SDS011;7928;43.614;1.456;2023-01-10T06:04:37;10.37;;;2.63;;
15655;SDS011;7928;43.614;1.456;2023-01-10T06:07:04;13.50;;;2.83;;
15655;SDS011;7928;43.614;1.456;2023-01-10T06:09:33;10.63;;;2.70;;
15655;SDS011;7928;43.614;1.456;2023-01-10T06:12:00;9.43;;;2.47;;
15655;SDS011;7928;43.614;1.456;2023-01-10T06:14:27;9.77;;;2.60;;
15655;SDS011;7928;43.614;1.456;2023-01-10T06:16:54;13.20;;;2.77;;
15655;SDS011;7928;43.614;1.456;2023-01-10T06:19:21;12.07;;;3.40;;
15655;SDS011;7928;43.614;1.456;2023-01-10T06:21:48;11.97;;;2.80;;
15655;SDS011;7928;43.614;1.456;2023-01-10T06:24:15;8.37;;;2.40;;
15655;SDS011;7928;43.614;1.456;2023-01-10T06:26:44;13.47;;;3.00;;
15655;SDS011;7928;43.614;1.456;2023-01-10T06:29:11;14.13;;;2.60;;
15655;SDS011;7928;43.614;1.456;2023-01-10T06:31:38;13.60;;;2.87;;
15655;SDS011;7928;43.614;1.456;2023-01-10T06:34:05;12.53;;;3.57;;
15655;SDS011;7928;43.614;1.456;2023-01-10T06:36:32;11.13;;;2.90;;
15655;SDS011;7928;43.614;1.456;2023-01-10T06:38:59;8.23;;;2.23;;
15655;SDS011;7928;43.614;1.456;2023-01-10T06:41:26;7.80;;;2.80;;
15655;SDS011;7928;43.614;1.456;2023-01-10T06:43:54;10.73;;;2.70;;
15655;SDS011;7928;43.614;1.456;2023-01-10T06:46:21;9.37;;;2.70;;
15655;SDS011;7928;43.614;1.456;2023-01-10T06:48:48;15.23;;;3.40;;
15655;SDS011;7928;43.614;1.456;2023-01-10T06:51:16;11.53;;;3.00;;
15655;SDS011;7928;43.614;1.456;2023-01-10T06:53:43;9.03;;;2.30;;
15655;SDS011;7928;43.614;1.456;2023-01-10T06:56:10;10.93;;;3.03;;
15655;SDS011;7928;43.614;1.456;2023-01-10T06:58:37;16.90;;;3.03;;
15655;SDS011;7928;43.614;1.456;2023-01-10T07:01:06;10.47;;;2.67;;
15655;SDS011;7928;43.614;1.456;2023-01-10T07:03:39;7.77;;;2.43;;
15655;SDS011;7928;43.614;1.456;2023-01-10T07:06:07;8.97;;;2.50;;
15655;SDS011;7928;43.614;1.456;2023-01-10T07:08:35;12.03;;;3.00;;
15655;SDS011;7928;43.614;1.456;2023-01-10T07:11:02;10.97;;;3.70;;
15655;SDS011;7928;43.614;1.456;2023-01-10T07:13:30;9.23;;;2.67;;
15655;SDS011;7928;43.614;1.456;2023-01-10T07:16:01;11.83;;;3.03;;
15655;SDS011;7928;43.614;1.456;2023-01-10T07:18:30;11.37;;;2.83;;
15655;SDS011;7928;43.614;1.456;2023-01-10T07:20:58;8.67;;;2.23;;
15655;SDS011;7928;43.614;1.456;2023-01-10T07:23:26;10.03;;;3.30;;
15655;SDS011;7928;43.614;1.456;2023-01-10T07:25:55;9.33;;;3.50;;
15655;SDS011;7928;43.614;1.456;2023-01-10T07:28:22;11.47;;;2.87;;
15655;SDS011;7928;43.614;1.456;2023-01-10T07:30:50;7.93;;;2.57;;
15655;SDS011;7928;43.614;1.456;2023-01-10T07:33:17;6.73;;;2.17;;
15655;SDS011;7928;43.614;1.456;2023-01-10T07:35:45;10.80;;;3.30;;
15655;SDS011;7928;43.614;1.456;2023-01-10T07:38:12;13.77;;;2.77;;
15655;SDS011;7928;43.614;1.456;2023-01-10T07:40:39;9.07;;;2.50;;
15655;SDS011;7928;43.614;1.456;2023-01-10T07:43:06;11.43;;;3.13;;
15655;SDS011;7928;43.614;1.456;2023-01-10T07:45:34;10.20;;;3.73;;
15655;SDS011;7928;43.614;1.456;2023-01-10T07:48:02;12.20;;;3.03;;
15655;SDS011;7928;43.614;1.456;2023-01-10T07:50:30;11.60;;;3.13;;
15655;SDS011;7928;43.614;1.456;2023-01-10T07:53:00;6.43;;;2.73;;
15655;SDS011;7928;43.614;1.456;2023-01-10T07:55:28;8.77;;;2.50;;
15655;SDS011;7928;43.614;1.456;2023-01-10T07:57:55;8.17;;;3.23;;
15655;SDS011;7928;43.614;1.456;2023-01-10T08:00:22;13.50;;;2.90;;
15655;SDS011;7928;43.614;1.456;2023-01-10T08:02:51;12.27;;;3.17;;
15655;SDS011;7928;43.614;1.456;2023-01-10T08:05:19;10.17;;;2.80;;
15655;SDS011;7928;43.614;1.456;2023-01-10T08:07:47;9.97;;;2.83;;
15655;SDS011;7928;43.614;1.456;2023-01-10T08:10:15;10.73;;;3.13;;
15655;SDS011;7928;43.614;1.456;2023-01-10T08:12:42;10.27;;;3.03;;
15655;SDS011;7928;43.614;1.456;2023-01-10T08:15:10;11.50;;;2.73;;
15655;SDS011;7928;43.614;1.456;2023-01-10T08:17:37;14.90;;;3.30;;
15655;SDS011;7928;43.614;1.456;2023-01-10T08:20:06;12.83;;;2.87;;
15655;SDS011;7928;43.614;1.456;2023-01-10T08:22:34;12.03;;;3.07;;
15655;SDS011;7928;43.614;1.456;2023-01-10T08:25:01;9.00;;;2.80;;
15655;SDS011;7928;43.614;1.456;2023-01-10T08:27:30;8.07;;;2.77;;
15655;SDS011;7928;43.614;1.456;2023-01-10T08:29:57;10.97;;;3.20;;
15655;SDS011;7928;43.614;1.456;2023-01-10T08:32:24;11.03;;;3.07;;
15655;SDS011;7928;43.614;1.456;2023-01-10T08:34:51;9.90;;;3.77;;
15655;SDS011;7928;43.614;1.456;2023-01-10T08:37:18;9.50;;;3.30;;
15655;SDS011;7928;43.614;1.456;2023-01-10T08:39:45;11.20;;;4.13;;
15655;SDS011;7928;43.614;1.456;2023-01-10T08:42:12;7.80;;;3.43;;
15655;SDS011;7928;43.614;1.456;2023-01-10T08:44:42;10.77;;;3.70;;
15655;SDS011;7928;43.614;1.456;2023-01-10T08:47:09;13.67;;;3.90;;
15655;SDS011;7928;43.614;1.456;2023-01-10T08:49:36;10.50;;;4.40;;
15655;SDS011;7928;43.614;1.456;2023-01-10T08:52:03;12.30;;;3.47;;
15655;SDS011;7928;43.614;1.456;2023-01-10T08:54:30;12.63;;;3.37;;
15655;SDS011;7928;43.614;1.456;2023-01-10T08:56:57;11.33;;;3.63;;
15655;SDS011;7928;43.614;1.456;2023-01-10T08:59:24;5.87;;;2.40;;
15655;SDS011;7928;43.614;1.456;2023-01-10T09:01:53;6.97;;;3.57;;
15655;SDS011;7928;43.614;1.456;2023-01-10T09:04:22;15.00;;;3.80;;
15655;SDS011;7928;43.614;1.456;2023-01-10T09:06:50;12.63;;;4.53;;
15655;SDS011;7928;43.614;1.456;2023-01-10T09:09:17;11.83;;;4.60;;
15655;SDS011;7928;43.614;1.456;2023-01-10T09:11:44;8.60;;;3.03;;
15655;SDS011;7928;43.614;1.456;2023-01-10T09:14:11;8.30;;;3.17;;
15655;SDS011;7928;43.614;1.456;2023-01-10T09:16:38;9.93;;;3.40;;
15655;SDS011;7928;43.614;1.456;2023-01-10T09:19:07;5.47;;;2.90;;
15655;SDS011;7928;43.614;1.456;2023-01-10T09:21:34;10.67;;;3.97;;
15655;SDS011;7928;43.614;1.456;2023-01-10T09:24:01;9.90;;;3.50;;
15655;SDS011;7928;43.614;1.456;2023-01-10T09:26:29;11.80;;;3.90;;
15655;SDS011;7928;43.614;1.456;2023-01-10T09:28:56;11.03;;;4.17;;
15655;SDS011;7928;43.614;1.456;2023-01-10T09:31:23;10.33;;;3.97;;
15655;SDS011;7928;43.614;1.456;2023-01-10T09:33:50;10.50;;;3.93;;
15655;SDS011;7928;43.614;1.456;2023-01-10T09:36:18;9.37;;;3.63;;
15655;SDS011;7928;43.614;1.456;2023-01-10T09:38:45;15.77;;;4.00;;
15655;SDS011;7928;43.614;1.456;2023-01-10T09:41:16;11.90;;;3.63;;
15655;SDS011;7928;43.614;1.456;2023-01-10T09:43:56;10.87;;;3.33;;
15655;SDS011;7928;43.614;1.456;2023-01-10T09:46:33;13.67;;;3.67;;
15655;SDS011;7928;43.614;1.456;2023-01-10T09:49:09;13.43;;;3.60;;
15655;SDS011;7928;43.614;1.456;2023-01-10T09:51:49;15.10;;;4.23;;
15655;SDS011;7928;43.614;1.456;2023-01-10T09:54:24;11.73;;;4.07;;
15655;SDS011;7928;43.614;1.456;2023-01-10T09:56:53;12.53;;;3.83;;
15655;SDS011;7928;43.614;1.456;2023-01-10T09:59:24;12.77;;;4.53;;
15655;SDS011;7928;43.614;1.456;2023-01-10T10:01:54;9.83;;;3.93;;
15655;SDS011;7928;43.614;1.456;2023-01-10T10:04:31;11.47;;;3.87;;
15655;SDS011;7928;43.614;1.456;2023-01-10T10:07:02;10.40;;;4.20;;
15655;SDS011;7928;43.614;1.456;2023-01-10T10:09:33;9.73;;;4.13;;
15655;SDS011;7928;43.614;1.456;2023-01-10T10:12:04;8.47;;;3.50;;
15655;SDS011;7928;43.614;1.456;2023-01-10T10:14:47;7.07;;;3.43;;
15655;SDS011;7928;43.614;1.456;2023-01-10T10:17:31;10.50;;;3.30;;
15655;SDS011;7928;43.614;1.456;2023-01-10T10:20:13;8.67;;;3.13;;
15655;SDS011;7928;43.614;1.456;2023-01-10T10:22:52;14.17;;;3.47;;
15655;SDS011;7928;43.614;1.456;2023-01-10T10:25:31;11.30;;;3.87;;
15655;SDS011;7928;43.614;1.456;2023-01-10T10:28:15;8.67;;;3.40;;
15655;SDS011;7928;43.614;1.456;2023-01-10T10:31:01;10.13;;;4.07;;
15655;SDS011;7928;43.614;1.456;2023-01-10T10:33:42;12.20;;;3.60;;
15655;SDS011;7928;43.614;1.456;2023-01-10T10:36:20;8.57;;;3.77;;
15655;SDS011;7928;43.614;1.456;2023-01-10T10:38:52;10.50;;;3.87;;
15655;SDS011;7928;43.614;1.456;2023-01-10T10:41:28;9.97;;;2.90;;
15655;SDS011;7928;43.614;1.456;2023-01-10T10:43:58;10.00;;;4.07;;
15655;SDS011;7928;43.614;1.456;2023-01-10T10:46:29;6.30;;;2.90;;
15655;SDS011;7928;43.614;1.456;2023-01-10T10:48:57;10.50;;;3.93;;
15655;SDS011;7928;43.614;1.456;2023-01-10T10:51:26;9.07;;;3.33;;
15655;SDS011;7928;43.614;1.456;2023-01-10T10:54:00;11.07;;;3.73;;
15655;SDS011;7928;43.614;1.456;2023-01-10T10:56:27;8.00;;;3.73;;
15655;SDS011;7928;43.614;1.456;2023-01-10T10:58:55;9.00;;;3.53;;
15655;SDS011;7928;43.614;1.456;2023-01-10T11:01:24;8.87;;;3.67;;
15655;SDS011;7928;43.614;1.456;2023-01-10T11:03:54;8.48;;;3.67;;
15655;SDS011;7928;43.614;1.456;2023-01-10T11:06:24;6.88;;;3.50;;
15655;SDS011;7928;43.614;1.456;2023-01-10T11:08:54;11.25;;;3.45;;
15655;SDS011;7928;43.614;1.456;2023-01-10T11:11:27;9.02;;;3.85;;
15655;SDS011;7928;43.614;1.456;2023-01-10T11:13:56;8.07;;;3.13;;
15655;SDS011;7928;43.614;1.456;2023-01-10T11:16:25;9.30;;;3.50;;
15655;SDS011;7928;43.614;1.456;2023-01-10T11:21:54;10.65;;;3.67;;
15655;SDS011;7928;43.614;1.456;2023-01-10T11:24:26;8.88;;;3.60;;
15655;SDS011;7928;43.614;1.456;2023-01-10T11:26:57;8.50;;;3.22;;
15655;SDS011;7928;43.614;1.456;2023-01-10T11:29:28;5.75;;;2.95;;
15655;SDS011;7928;43.614;1.456;2023-01-10T11:32:07;5.85;;;2.95;;
15655;SDS011;7928;43.614;1.456;2023-01-10T11:34:39;6.70;;;3.08;;
15655;SDS011;7928;43.614;1.456;2023-01-10T11:37:16;11.95;;;3.35;;
15655;SDS011;7928;43.614;1.456;2023-01-10T11:39:45;12.57;;;3.78;;
15655;SDS011;7928;43.614;1.456;2023-01-10T11:42:24;7.32;;;3.53;;
15655;SDS011;7928;43.614;1.456;2023-01-10T11:44:54;6.32;;;3.13;;
15655;SDS011;7928;43.614;1.456;2023-01-10T11:47:21;8.55;;;3.28;;
15655;SDS011;7928;43.614;1.456;2023-01-10T11:49:48;6.63;;;2.78;;
15655;SDS011;7928;43.614;1.456;2023-01-10T11:52:17;5.15;;;3.45;;
15655;SDS011;7928;43.614;1.456;2023-01-10T11:54:48;8.50;;;2.47;;
15655;SDS011;7928;43.614;1.456;2023-01-10T11:57:16;7.25;;;3.00;;
15655;SDS011;7928;43.614;1.456;2023-01-10T11:59:50;8.10;;;3.10;;
15655;SDS011;7928;43.614;1.456;2023-01-10T12:02:19;12.85;;;3.40;;
15655;SDS011;7928;43.614;1.456;2023-01-10T12:04:50;7.63;;;3.30;;
15655;SDS011;7928;43.614;1.456;2023-01-10T12:07:18;10.68;;;3.60;;
15655;SDS011;7928;43.614;1.456;2023-01-10T12:09:53;7.88;;;3.53;;
15655;SDS011;7928;43.614;1.456;2023-01-10T12:12:32;8.43;;;2.80;;
15655;SDS011;7928;43.614;1.456;2023-01-10T12:15:19;7.65;;;3.15;;
15655;SDS011;7928;43.614;1.456;2023-01-10T12:17:48;10.98;;;3.50;;
15655;SDS011;7928;43.614;1.456;2023-01-10T12:20:15;7.72;;;3.10;;
15655;SDS011;7928;43.614;1.456;2023-01-10T12:22:44;9.57;;;3.10;;
15655;SDS011;7928;43.614;1.456;2023-01-10T12:25:16;9.25;;;3.30;;
15655;SDS011;7928;43.614;1.456;2023-01-10T12:27:46;9.20;;;3.05;;
15655;SDS011;7928;43.614;1.456;2023-01-10T12:30:15;9.95;;;3.47;;
15655;SDS011;7928;43.614;1.456;2023-01-10T12:32:46;12.35;;;3.60;;
15655;SDS011;7928;43.614;1.456;2023-01-10T12:35:17;7.50;;;3.13;;
15655;SDS011;7928;43.614;1.456;2023-01-10T12:37:49;5.82;;;2.55;;
15655;SDS011;7928;43.614;1.456;2023-01-10T12:40:23;8.07;;;3.22;;
15655;SDS011;7928;43.614;1.456;2023-01-10T12:42:57;8.95;;;2.97;;
15655;SDS011;7928;43.614;1.456;2023-01-10T12:45:49;9.63;;;3.28;;
15655;SDS011;7928;43.614;1.456;2023-01-10T12:48:20;9.40;;;2.85;;
15655;SDS011;7928;43.614;1.456;2023-01-10T12:50:53;6.78;;;2.65;;
15655;SDS011;7928;43.614;1.456;2023-01-10T12:53:27;9.15;;;3.05;;
15655;SDS011;7928;43.614;1.456;2023-01-10T12:55:57;8.82;;;3.05;;
15655;SDS011;7928;43.614;1.456;2023-01-10T12:58:31;6.32;;;2.80;;
15655;SDS011;7928;43.614;1.456;2023-01-10T13:01:03;5.85;;;2.55;;
15655;SDS011;7928;43.614;1.456;2023-01-10T13:03:32;10.25;;;3.22;;
15655;SDS011;7928;43.614;1.456;2023-01-10T13:06:00;7.45;;;2.95;;
15655;SDS011;7928;43.614;1.456;2023-01-10T13:08:29;10.95;;;3.78;;
15655;SDS011;7928;43.614;1.456;2023-01-10T13:10:58;7.47;;;2.75;;
15655;SDS011;7928;43.614;1.456;2023-01-10T13:13:28;10.40;;;3.03;;
15655;SDS011;7928;43.614;1.456;2023-01-10T13:19:00;8.30;;;3.20;;
15655;SDS011;7928;43.614;1.456;2023-01-10T13:21:30;8.55;;;3.00;;
15655;SDS011;7928;43.614;1.456;2023-01-10T13:23:58;7.35;;;2.53;;
15655;SDS011;7928;43.614;1.456;2023-01-10T13:29:18;8.25;;;2.72;;
15655;SDS011;7928;43.614;1.456;2023-01-10T13:31:47;12.50;;;3.90;;
15655;SDS011;7928;43.614;1.456;2023-01-10T13:34:21;9.05;;;3.25;;
15655;SDS011;7928;43.614;1.456;2023-01-10T13:36:52;8.77;;;2.78;;
15655;SDS011;7928;43.614;1.456;2023-01-10T13:39:22;6.43;;;2.30;;
15655;SDS011;7928;43.614;1.456;2023-01-10T13:42:11;7.82;;;2.70;;
15655;SDS011;7928;43.614;1.456;2023-01-10T13:45:20;7.97;;;2.85;;
15655;SDS011;7928;43.614;1.456;2023-01-10T13:47:59;7.68;;;2.80;;
15655;SDS011;7928;43.614;1.456;2023-01-10T13:50:49;5.60;;;2.33;;
15655;SDS011;7928;43.614;1.456;2023-01-10T13:56:31;7.22;;;2.13;;
15655;SDS011;7928;43.614;1.456;2023-01-10T13:59:03;7.22;;;2.28;;
15655;SDS011;7928;43.614;1.456;2023-01-10T14:01:54;7.05;;;1.88;;
15655;SDS011;7928;43.614;1.456;2023-01-10T14:04:44;6.28;;;2.28;;
15655;SDS011;7928;43.614;1.456;2023-01-10T14:07:16;6.18;;;2.25;;
15655;SDS011;7928;43.614;1.456;2023-01-10T14:09:48;5.10;;;2.20;;
15655;SDS011;7928;43.614;1.456;2023-01-10T14:12:24;5.07;;;1.92;;
15655;SDS011;7928;43.614;1.456;2023-01-10T14:14:56;9.57;;;2.70;;
15655;SDS011;7928;43.614;1.456;2023-01-10T14:17:27;7.55;;;2.47;;
15655;SDS011;7928;43.614;1.456;2023-01-10T14:19:57;8.18;;;2.25;;
15655;SDS011;7928;43.614;1.456;2023-01-10T14:22:28;7.32;;;2.50;;
15655;SDS011;7928;43.614;1.456;2023-01-10T14:24:58;6.15;;;1.98;;
15655;SDS011;7928;43.614;1.456;2023-01-10T14:27:27;5.45;;;1.90;;
15655;SDS011;7928;43.614;1.456;2023-01-10T14:30:02;8.23;;;2.33;;
15655;SDS011;7928;43.614;1.456;2023-01-10T14:32:34;6.18;;;2.20;;
15655;SDS011;7928;43.614;1.456;2023-01-10T14:35:04;7.18;;;2.38;;
15655;SDS011;7928;43.614;1.456;2023-01-10T14:37:36;6.82;;;2.10;;
15655;SDS011;7928;43.614;1.456;2023-01-10T14:40:10;5.28;;;2.20;;
15655;SDS011;7928;43.614;1.456;2023-01-10T14:42:46;7.78;;;2.03;;
15655;SDS011;7928;43.614;1.456;2023-01-10T14:45:18;8.80;;;2.33;;
15655;SDS011;7928;43.614;1.456;2023-01-10T14:47:56;7.05;;;2.15;;
15655;SDS011;7928;43.614;1.456;2023-01-10T14:50:24;5.88;;;2.17;;
15655;SDS011;7928;43.614;1.456;2023-01-10T14:52:56;7.13;;;2.40;;
15655;SDS011;7928;43.614;1.456;2023-01-10T14:55:24;8.00;;;2.65;;
15655;SDS011;7928;43.614;1.456;2023-01-10T14:57:52;7.38;;;2.40;;
15655;SDS011;7928;43.614;1.456;2023-01-10T15:00:24;7.00;;;2.05;;
15655;SDS011;7928;43.614;1.456;2023-01-10T15:02:53;8.13;;;2.17;;
15655;SDS011;7928;43.614;1.456;2023-01-10T15:05:24;6.45;;;2.38;;
15655;SDS011;7928;43.614;1.456;2023-01-10T15:07:52;6.53;;;3.17;;
15655;SDS011;7928;43.614;1.456;2023-01-10T15:10:21;10.63;;;2.35;;
15655;SDS011;7928;43.614;1.456;2023-01-10T15:12:51;5.35;;;1.92;;
15655;SDS011;7928;43.614;1.456;2023-01-10T15:15:21;6.40;;;2.53;;
15655;SDS011;7928;43.614;1.456;2023-01-10T15:17:56;8.50;;;2.80;;
15655;SDS011;7928;43.614;1.456;2023-01-10T15:20:25;7.47;;;2.33;;
15655;SDS011;7928;43.614;1.456;2023-01-10T15:22:54;5.50;;;2.00;;
15655;SDS011;7928;43.614;1.456;2023-01-10T15:25:24;8.20;;;2.25;;
15655;SDS011;7928;43.614;1.456;2023-01-10T15:27:54;7.45;;;2.28;;
15655;SDS011;7928;43.614;1.456;2023-01-10T15:30:23;6.97;;;2.47;;
15655;SDS011;7928;43.614;1.456;2023-01-10T15:32:52;7.10;;;2.63;;
15655;SDS011;7928;43.614;1.456;2023-01-10T15:35:24;8.38;;;2.40;;
15655;SDS011;7928;43.614;1.456;2023-01-10T15:37:54;6.68;;;2.28;;